createdAt,value
2022-09-25T00:01:13.886Z,84.12
2022-09-25T00:03:49.531Z,83.99
2022-09-25T00:06:22.448Z,84.09
2022-09-25T00:08:50.323Z,84.72
2022-09-25T00:11:20.813Z,85.79
2022-09-25T00:13:48.791Z,85.56
2022-09-25T00:16:19.425Z,85.53
2022-09-25T00:19:05.605Z,85.47
2022-09-25T00:21:33.438Z,85.42
2022-09-25T00:24:03.355Z,85.77
2022-09-25T00:26:33.541Z,85.67
2022-09-25T00:29:00.999Z,85.55
2022-09-25T00:31:29.261Z,85.30
2022-09-25T00:33:58.366Z,85.41
2022-09-25T00:36:26.273Z,85.40
2022-09-25T00:38:54.168Z,85.43
2022-09-25T00:41:23.412Z,85.50
2022-09-25T00:43:53.181Z,85.43
2022-09-25T00:46:22.425Z,85.58
2022-09-25T00:49:08.075Z,85.60
2022-09-25T00:51:46.455Z,85.50
2022-09-25T00:54:17.708Z,85.49
2022-09-25T00:56:48.539Z,85.52
2022-09-25T00:59:22.592Z,85.60
2022-09-25T01:01:49.817Z,85.53
2022-09-25T01:04:19.534Z,85.47
2022-09-25T01:06:46.622Z,85.70
2022-09-25T01:09:13.601Z,85.75
2022-09-25T01:11:40.565Z,85.77
2022-09-25T01:14:09.670Z,85.81
2022-09-25T01:16:50.863Z,85.75
2022-09-25T01:20:03.245Z,85.67
2022-09-25T01:22:55.604Z,85.53
2022-09-25T01:25:57.634Z,85.55
2022-09-25T01:28:49.972Z,85.54
2022-09-25T01:31:38.210Z,85.48
2022-09-25T01:34:50.778Z,85.67
2022-09-25T01:37:29.546Z,85.94
2022-09-25T01:40:28.743Z,85.90
2022-09-25T01:43:09.524Z,85.89
2022-09-25T01:45:40.861Z,86.03
2022-09-25T01:48:10.361Z,85.83
2022-09-25T01:50:47.511Z,85.91
2022-09-25T01:53:20.380Z,86.04
2022-09-25T01:55:52.570Z,86.08
2022-09-25T01:58:33.949Z,85.82
2022-09-25T02:01:15.573Z,85.53
2022-09-25T02:03:56.931Z,85.71
2022-09-25T02:06:25.078Z,85.85
2022-09-25T02:09:00.828Z,85.87
2022-09-25T02:11:35.204Z,85.88
2022-09-25T02:14:08.530Z,85.82
2022-09-25T02:16:43.186Z,86.01
2022-09-25T02:19:32.353Z,86.23
2022-09-25T02:21:59.483Z,86.47
2022-09-25T02:24:41.302Z,86.42
2022-09-25T02:27:08.290Z,86.37
2022-09-25T02:29:35.276Z,86.45
2022-09-25T02:32:08.010Z,86.65
2022-09-25T02:34:36.334Z,86.63
2022-09-25T02:37:09.761Z,86.85
2022-09-25T02:39:36.722Z,86.89
2022-09-25T02:42:25.421Z,86.87
2022-09-25T02:45:17.573Z,87.03
2022-09-25T02:47:51.564Z,87.12
2022-09-25T02:50:43.199Z,86.83
2022-09-25T02:53:38.450Z,86.67
2022-09-25T02:56:20.584Z,86.91
2022-09-25T02:59:02.069Z,87.10
2022-09-25T03:01:34.758Z,86.91
2022-09-25T03:04:04.938Z,87.11
2022-09-25T03:06:32.523Z,87.26
2022-09-25T03:09:01.507Z,87.27
2022-09-25T03:11:29.124Z,87.35
2022-09-25T03:14:01.840Z,87.55
2022-09-25T03:16:45.636Z,87.89
2022-09-25T03:19:13.734Z,87.70
2022-09-25T03:21:41.023Z,87.85
2022-09-25T03:24:09.550Z,87.90
2022-09-25T03:26:36.626Z,88.12
2022-09-25T03:29:03.942Z,88.10
2022-09-25T03:31:32.215Z,87.97
2022-09-25T03:34:00.141Z,87.80
2022-09-25T03:36:29.315Z,87.87
2022-09-25T03:38:58.526Z,88.05
2022-09-25T03:41:28.667Z,88.16
2022-09-25T03:43:56.419Z,88.12
2022-09-25T03:46:26.599Z,88.27
2022-09-25T03:48:54.934Z,88.30
2022-09-25T03:51:23.149Z,88.21
2022-09-25T03:53:51.279Z,88.11
2022-09-25T03:56:21.087Z,88.25
2022-09-25T03:58:49.872Z,88.17
2022-09-25T04:01:19.017Z,88.10
2022-09-25T04:03:47.026Z,88.18
2022-09-25T04:06:17.897Z,88.10
2022-09-25T04:08:46.071Z,88.05
2022-09-25T04:11:15.143Z,88.03
2022-09-25T04:13:43.677Z,88.05
2022-09-25T04:16:12.617Z,88.09
2022-09-25T04:18:41.351Z,88.13
2022-09-25T04:21:10.706Z,88.06
2022-09-25T04:23:38.393Z,88.00
2022-09-25T04:26:06.270Z,88.07
2022-09-25T04:28:33.673Z,88.33
2022-09-25T04:31:02.151Z,88.42
2022-09-25T04:33:48.258Z,88.40
2022-09-25T04:36:18.624Z,88.42
2022-09-25T04:38:46.730Z,88.66
2022-09-25T04:41:19.632Z,88.83
2022-09-25T04:43:47.307Z,88.80
2022-09-25T04:46:21.119Z,89.05
2022-09-25T04:48:49.711Z,89.01
2022-09-25T04:51:16.748Z,88.82
2022-09-25T04:53:43.671Z,88.61
2022-09-25T04:56:15.823Z,88.71
2022-09-25T04:58:49.119Z,88.73
2022-09-25T05:01:18.708Z,88.85
2022-09-25T05:03:49.772Z,89.16
2022-09-25T05:06:16.827Z,89.02
2022-09-25T05:08:43.789Z,89.28
2022-09-25T05:11:11.269Z,89.36
2022-09-25T05:13:40.940Z,89.26
2022-09-25T05:16:08.990Z,89.21
2022-09-25T05:18:41.344Z,89.08
2022-09-25T05:21:09.712Z,89.20
2022-09-25T05:23:36.793Z,89.34
2022-09-25T05:26:06.870Z,89.22
2022-09-25T05:28:34.172Z,89.19
2022-09-25T05:31:03.211Z,89.35
2022-09-25T05:33:32.462Z,89.36
2022-09-25T05:36:07.189Z,89.36
2022-09-25T05:38:39.758Z,89.32
2022-09-25T05:41:10.628Z,89.23
2022-09-25T05:43:44.083Z,89.21
2022-09-25T05:46:13.027Z,89.31
2022-09-25T05:48:40.529Z,89.36
2022-09-25T05:51:08.622Z,89.23
2022-09-25T05:53:36.516Z,89.24
2022-09-25T05:56:05.323Z,88.82
2022-09-25T05:58:35.294Z,89.11
2022-09-25T06:01:07.952Z,89.07
2022-09-25T06:03:35.702Z,88.59
2022-09-25T06:06:03.914Z,88.38
2022-09-25T06:08:31.656Z,88.38
2022-09-25T06:11:00.939Z,88.15
2022-09-25T06:13:31.606Z,88.15
2022-09-25T06:15:58.841Z,88.05
2022-09-25T06:18:26.473Z,88.09
2022-09-25T06:21:01.255Z,88.03
2022-09-25T06:23:29.026Z,87.84
2022-09-25T06:26:03.219Z,87.79
2022-09-25T06:28:32.421Z,87.50
2022-09-25T06:31:01.436Z,87.23
2022-09-25T06:33:28.648Z,86.91
2022-09-25T06:35:55.697Z,86.74
2022-09-25T06:38:22.726Z,86.52
2022-09-25T06:40:50.054Z,86.42
2022-09-25T06:43:17.399Z,86.32
2022-09-25T06:45:44.459Z,86.01
2022-09-25T06:48:13.379Z,85.68
2022-09-25T06:50:46.695Z,85.45
2022-09-25T06:53:15.748Z,85.11
2022-09-25T06:55:46.996Z,84.90
2022-09-25T06:58:17.561Z,84.64
2022-09-25T07:00:51.333Z,84.19
2022-09-25T07:03:37.873Z,83.85
2022-09-25T07:06:07.919Z,83.33
2022-09-25T07:08:36.446Z,83.56
2022-09-25T07:11:04.210Z,83.53
2022-09-25T07:13:34.903Z,83.74
2022-09-25T07:16:07.649Z,83.16
2022-09-25T07:18:34.946Z,83.28
2022-09-25T07:21:08.016Z,83.39
2022-09-25T07:23:35.884Z,83.47
2022-09-25T07:26:10.590Z,83.45
2022-09-25T07:28:40.634Z,83.52
2022-09-25T07:31:22.924Z,83.60
2022-09-25T07:33:50.258Z,83.27
2022-09-25T07:36:18.180Z,83.23
2022-09-25T07:38:53.668Z,83.20
2022-09-25T07:41:22.433Z,82.92
2022-09-25T07:44:11.915Z,82.40
2022-09-25T07:46:45.491Z,82.19
2022-09-25T07:49:12.657Z,81.92
2022-09-25T07:51:39.682Z,81.79
2022-09-25T07:54:07.596Z,81.84
2022-09-25T07:56:34.826Z,81.76
2022-09-25T07:59:02.586Z,81.80
2022-09-25T08:01:29.656Z,82.19
2022-09-25T08:03:56.921Z,82.29
2022-09-25T08:06:24.183Z,82.49
2022-09-25T08:08:51.200Z,82.57
2022-09-25T08:11:18.375Z,82.16
2022-09-25T08:13:45.929Z,81.85
2022-09-25T08:16:18.641Z,81.87
2022-09-25T08:18:47.067Z,81.93
2022-09-25T08:21:16.714Z,81.89
2022-09-25T08:23:49.210Z,81.65
2022-09-25T08:26:23.228Z,81.66
2022-09-25T08:28:53.446Z,81.27
2022-09-25T08:31:21.859Z,81.39
2022-09-25T08:33:50.329Z,81.14
2022-09-25T08:36:18.124Z,81.11
2022-09-25T08:38:45.237Z,81.07
2022-09-25T08:41:18.623Z,80.99
2022-09-25T08:44:09.818Z,80.62
2022-09-25T08:47:09.015Z,80.24
2022-09-25T08:49:45.214Z,80.02
2022-09-25T08:52:21.857Z,79.76
2022-09-25T08:54:54.646Z,78.97
2022-09-25T08:57:43.697Z,78.92
2022-09-25T09:00:22.569Z,78.93
2022-09-25T09:02:55.353Z,78.69
2022-09-25T09:05:40.733Z,78.24
2022-09-25T09:08:14.179Z,78.23
2022-09-25T09:11:10.006Z,78.15
2022-09-25T09:13:54.755Z,77.97
2022-09-25T09:16:21.795Z,77.79
2022-09-25T09:18:57.156Z,77.11
2022-09-25T09:21:46.730Z,75.91
2022-09-25T09:24:35.042Z,76.00
2022-09-25T09:27:24.378Z,76.36
2022-09-25T09:30:20.278Z,76.05
2022-09-25T09:33:17.522Z,75.05
2022-09-25T09:35:47.914Z,74.37
2022-09-25T09:38:28.205Z,73.79
2022-09-25T09:41:05.043Z,73.66
2022-09-25T09:43:57.640Z,73.76
2022-09-25T09:46:28.287Z,73.19
2022-09-25T09:49:34.937Z,71.44
2022-09-25T09:52:11.051Z,72.55
2022-09-25T09:54:52.712Z,72.17
2022-09-25T09:57:32.877Z,71.56
2022-09-25T10:00:11.873Z,70.17
2022-09-25T10:03:01.886Z,68.82
2022-09-25T10:05:35.104Z,69.42
2022-09-25T10:08:02.387Z,69.31
2022-09-25T10:10:36.903Z,67.72
2022-09-25T10:13:11.060Z,67.76
2022-09-25T10:16:04.525Z,65.99
2022-09-25T10:18:40.557Z,61.70
2022-09-25T10:21:18.085Z,61.94
2022-09-25T10:23:50.697Z,60.73
2022-09-25T10:26:29.887Z,61.37
2022-09-25T10:29:02.171Z,61.12
2022-09-25T10:31:33.283Z,59.88
2022-09-25T10:34:05.904Z,58.80
2022-09-25T10:36:42.868Z,56.59
2022-09-25T10:39:49.178Z,55.85
2022-09-25T10:42:40.524Z,54.71
2022-09-25T10:45:40.427Z,52.65
2022-09-25T10:48:44.213Z,51.06
2022-09-25T10:51:12.168Z,53.20
2022-09-25T10:53:39.172Z,49.78
2022-09-25T10:56:12.551Z,50.43
2022-09-25T10:58:52.490Z,48.36
2022-09-25T11:01:19.787Z,49.44
2022-09-25T11:03:51.063Z,51.15
2022-09-25T11:06:25.944Z,53.19
2022-09-25T11:09:12.494Z,50.79
2022-09-25T11:11:40.698Z,51.31
2022-09-25T11:14:18.926Z,52.46
2022-09-25T11:16:52.506Z,52.24
2022-09-25T11:19:30.837Z,49.15
2022-09-25T11:22:16.068Z,49.75
2022-09-25T11:25:11.421Z,51.70
2022-09-25T11:27:53.042Z,51.20
2022-09-25T11:30:22.248Z,48.00
2022-09-25T11:33:15.264Z,45.64
2022-09-25T11:35:52.773Z,46.69
2022-09-25T11:38:59.862Z,43.80
2022-09-25T11:41:38.393Z,44.47
2022-09-25T11:44:32.495Z,43.77
2022-09-25T11:47:33.653Z,42.33
2022-09-25T11:50:01.762Z,42.92
2022-09-25T11:52:47.786Z,41.93
2022-09-25T11:55:34.329Z,43.29
2022-09-25T11:58:20.352Z,44.92
2022-09-25T12:01:18.471Z,45.45
2022-09-25T12:04:20.483Z,45.53
2022-09-25T12:06:54.681Z,46.31
2022-09-25T12:09:43.466Z,47.21
2022-09-25T12:12:30.920Z,45.62
2022-09-25T12:15:27.511Z,45.41
2022-09-25T12:18:22.979Z,43.79
2022-09-25T12:21:03.693Z,41.93
2022-09-25T12:23:58.685Z,41.64
2022-09-25T12:26:44.623Z,40.63
2022-09-25T12:29:28.644Z,41.10
2022-09-25T12:32:28.215Z,42.89
2022-09-25T12:35:28.728Z,43.65
2022-09-25T12:38:05.187Z,45.42
2022-09-25T12:40:59.036Z,46.88
2022-09-25T12:43:52.090Z,48.34
2022-09-25T12:46:42.120Z,48.57
2022-09-25T12:49:12.085Z,49.54
2022-09-25T12:51:43.280Z,48.59
2022-09-25T12:54:25.885Z,47.80
2022-09-25T12:57:13.619Z,48.40
2022-09-25T12:59:51.978Z,49.32
2022-09-25T13:03:00.485Z,50.20
2022-09-25T13:05:34.728Z,51.40
2022-09-25T13:08:44.749Z,51.70
2022-09-25T13:11:38.679Z,52.06
2022-09-25T13:14:32.470Z,52.17
2022-09-25T13:17:00.926Z,52.17
2022-09-25T13:19:32.743Z,51.57
2022-09-25T13:22:20.317Z,51.52
2022-09-25T13:25:13.887Z,51.67
2022-09-25T13:27:46.280Z,52.23
2022-09-25T13:30:25.941Z,52.81
2022-09-25T13:32:55.916Z,53.25
2022-09-25T13:35:23.719Z,52.59
2022-09-25T13:37:54.749Z,52.65
2022-09-25T13:40:42.332Z,52.89
2022-09-25T13:43:27.712Z,52.92
2022-09-25T13:46:17.414Z,52.86
2022-09-25T13:48:44.592Z,53.13
2022-09-25T13:51:17.925Z,53.41
2022-09-25T13:53:58.590Z,53.10
2022-09-25T13:56:41.082Z,53.02
2022-09-25T13:59:14.610Z,53.09
2022-09-25T14:01:46.719Z,52.95
2022-09-25T14:04:13.759Z,53.00
2022-09-25T14:06:42.732Z,53.22
2022-09-25T14:09:19.450Z,53.58
2022-09-25T14:12:02.496Z,53.93
2022-09-25T14:14:52.375Z,54.43
2022-09-25T14:17:21.985Z,53.71
2022-09-25T14:19:52.520Z,53.63
2022-09-25T14:22:29.178Z,53.79
2022-09-25T14:24:56.265Z,53.83
2022-09-25T14:27:27.391Z,54.22
2022-09-25T14:30:13.609Z,53.95
2022-09-25T14:32:59.948Z,54.57
2022-09-25T14:35:42.174Z,54.90
2022-09-25T14:38:48.098Z,54.98
2022-09-25T14:41:22.537Z,54.20
2022-09-25T14:44:25.247Z,54.54
2022-09-25T14:46:56.758Z,55.38
2022-09-25T14:49:38.247Z,55.14
2022-09-25T14:52:14.640Z,55.06
2022-09-25T14:54:45.973Z,55.55
2022-09-25T14:57:20.793Z,56.00
2022-09-25T14:59:56.090Z,55.93
2022-09-25T15:02:40.045Z,56.17
2022-09-25T15:05:32.742Z,56.42
2022-09-25T15:08:02.038Z,56.96
2022-09-25T15:10:38.527Z,57.60
2022-09-25T15:13:20.292Z,57.80
2022-09-25T15:16:12.717Z,58.00
2022-09-25T15:18:42.211Z,58.25
2022-09-25T15:21:21.188Z,58.68
2022-09-25T15:23:48.257Z,59.28
2022-09-25T15:26:18.403Z,59.59
2022-09-25T15:28:45.895Z,60.51
2022-09-25T15:31:13.617Z,60.45
2022-09-25T15:33:41.627Z,60.68
2022-09-25T15:36:16.868Z,60.86
2022-09-25T15:38:44.239Z,61.19
2022-09-25T15:41:15.549Z,61.47
2022-09-25T15:43:42.839Z,61.98
2022-09-25T15:46:09.775Z,61.90
2022-09-25T15:49:08.240Z,62.13
2022-09-25T15:51:36.163Z,62.74
2022-09-25T15:54:18.573Z,62.53
2022-09-25T15:56:50.725Z,63.04
2022-09-25T15:59:30.460Z,63.60
2022-09-25T16:02:16.914Z,64.10
2022-09-25T16:04:51.391Z,64.64
2022-09-25T16:07:28.543Z,64.84
2022-09-25T16:09:58.844Z,64.96
2022-09-25T16:12:26.299Z,65.31
2022-09-25T16:14:54.862Z,65.44
2022-09-25T16:17:22.373Z,65.54
2022-09-25T16:20:06.514Z,65.57
2022-09-25T16:22:45.349Z,65.33
2022-09-25T16:25:20.714Z,65.55
2022-09-25T16:27:48.147Z,65.89
2022-09-25T16:30:23.758Z,65.98
2022-09-25T16:32:55.808Z,65.83
2022-09-25T16:36:08.230Z,66.00
2022-09-25T16:38:34.662Z,66.17
2022-09-25T16:41:11.788Z,66.63
2022-09-25T16:43:39.354Z,66.82
2022-09-25T16:46:25.265Z,66.62
2022-09-25T16:49:00.674Z,66.69
2022-09-25T16:51:29.781Z,66.57
2022-09-25T16:54:00.515Z,66.73
2022-09-25T16:56:30.345Z,66.97
2022-09-25T16:58:58.809Z,67.04
2022-09-25T17:01:27.787Z,66.99
2022-09-25T17:03:59.281Z,66.92
2022-09-25T17:06:29.937Z,67.50
2022-09-25T17:08:59.678Z,67.64
2022-09-25T17:11:27.021Z,67.86
2022-09-25T17:13:54.153Z,67.71
2022-09-25T17:16:21.287Z,67.76
2022-09-25T17:18:48.445Z,68.02
2022-09-25T17:21:16.286Z,68.64
2022-09-25T17:23:44.155Z,69.18
2022-09-25T17:26:19.983Z,69.27
2022-09-25T17:28:47.507Z,69.96
2022-09-25T17:31:19.730Z,70.22
2022-09-25T17:33:49.666Z,70.34
2022-09-25T17:36:16.940Z,70.79
2022-09-25T17:38:44.156Z,70.94
2022-09-25T17:41:40.971Z,71.06
2022-09-25T17:44:15.904Z,71.29
2022-09-25T17:47:03.494Z,71.52
2022-09-25T17:49:30.692Z,71.89
2022-09-25T17:51:58.291Z,72.12
2022-09-25T17:54:29.603Z,72.25
2022-09-25T17:56:57.060Z,72.31
2022-09-25T17:59:26.108Z,72.27
2022-09-25T18:01:53.316Z,72.48
2022-09-25T18:04:24.901Z,72.67
2022-09-25T18:06:52.519Z,72.96
2022-09-25T18:09:27.508Z,73.31
2022-09-25T18:11:56.054Z,73.67
2022-09-25T18:14:23.848Z,73.85
2022-09-25T18:16:50.871Z,73.80
2022-09-25T18:19:38.540Z,73.89
2022-09-25T18:22:21.255Z,73.93
2022-09-25T18:24:58.813Z,74.05
2022-09-25T18:27:31.940Z,74.64
2022-09-25T18:30:00.330Z,74.79
2022-09-25T18:32:27.993Z,74.94
2022-09-25T18:34:55.975Z,74.97
2022-09-25T18:37:23.164Z,74.94
2022-09-25T18:39:50.736Z,75.19
2022-09-25T18:42:18.073Z,75.28
2022-09-25T18:44:45.117Z,75.44
2022-09-25T18:47:13.420Z,75.65
2022-09-25T18:49:40.528Z,75.51
2022-09-25T18:52:07.887Z,75.57
2022-09-25T18:54:34.978Z,75.45
2022-09-25T18:57:02.440Z,75.49
2022-09-25T18:59:30.106Z,75.58
2022-09-25T19:02:00.182Z,75.64
2022-09-25T19:04:28.305Z,75.96
2022-09-25T19:06:55.788Z,75.97
2022-09-25T19:09:26.076Z,76.12
2022-09-25T19:11:55.153Z,76.25
2022-09-25T19:14:23.830Z,76.37
2022-09-25T19:16:52.762Z,76.77
2022-09-25T19:19:20.227Z,77.21
2022-09-25T19:21:47.704Z,77.53
2022-09-25T19:24:17.746Z,78.03
2022-09-25T19:26:45.719Z,78.22
2022-09-25T19:29:13.275Z,78.08
2022-09-25T19:31:40.906Z,78.12
2022-09-25T19:34:08.829Z,78.15
2022-09-25T19:36:36.524Z,78.67
2022-09-25T19:39:05.212Z,79.50
2022-09-25T19:41:35.563Z,80.00
2022-09-25T19:44:12.376Z,80.01
2022-09-25T19:46:45.724Z,80.36
2022-09-25T19:49:15.564Z,80.15
2022-09-25T19:51:43.179Z,79.84
2022-09-25T19:54:13.713Z,79.98
2022-09-25T19:56:41.937Z,79.67
2022-09-25T19:59:15.904Z,79.97
2022-09-25T20:01:44.037Z,81.07
2022-09-25T20:04:19.074Z,81.58
2022-09-25T20:06:49.835Z,81.31
2022-09-25T20:09:17.339Z,81.79
2022-09-25T20:11:46.194Z,82.37
2022-09-25T20:14:14.032Z,82.95
2022-09-25T20:16:41.508Z,82.72
2022-09-25T20:19:09.657Z,83.25
2022-09-25T20:21:38.633Z,82.88
2022-09-25T20:24:07.659Z,82.72
2022-09-25T20:26:35.987Z,82.87
2022-09-25T20:29:12.505Z,83.40
2022-09-25T20:31:42.668Z,82.92
2022-09-25T20:34:15.369Z,82.95
2022-09-25T20:36:43.542Z,82.99
2022-09-25T20:39:19.784Z,83.24
2022-09-25T20:41:48.980Z,83.32
2022-09-25T20:44:16.250Z,83.39
2022-09-25T20:46:43.205Z,83.48
2022-09-25T20:49:10.729Z,83.55
2022-09-25T20:51:37.880Z,83.62
2022-09-25T20:54:09.674Z,83.92
2022-09-25T20:56:38.623Z,84.35
2022-09-25T20:59:05.826Z,83.98
2022-09-25T21:01:36.147Z,84.31
2022-09-25T21:04:05.344Z,84.37
2022-09-25T21:06:34.295Z,84.39
2022-09-25T21:09:05.851Z,84.73
2022-09-25T21:11:33.383Z,84.88
2022-09-25T21:14:02.197Z,84.85
2022-09-25T21:16:32.614Z,85.42
2022-09-25T21:19:03.757Z,85.79
2022-09-25T21:21:33.201Z,86.24
2022-09-25T21:24:01.906Z,86.29
2022-09-25T21:26:30.826Z,86.09
2022-09-25T21:29:00.570Z,85.84
2022-09-25T21:31:41.062Z,85.89
2022-09-25T21:34:11.790Z,85.84
2022-09-25T21:36:38.802Z,85.85
2022-09-25T21:39:06.845Z,85.93
2022-09-25T21:41:34.233Z,85.88
2022-09-25T21:44:07.524Z,85.87
2022-09-25T21:46:34.739Z,85.89
2022-09-25T21:49:04.877Z,86.08
2022-09-25T21:51:38.643Z,86.06
2022-09-25T21:54:07.793Z,85.91
2022-09-25T21:56:35.536Z,85.91
2022-09-25T21:59:08.156Z,86.02
2022-09-25T22:01:39.704Z,86.22
2022-09-25T22:04:10.699Z,86.40
2022-09-25T22:06:41.298Z,86.43
2022-09-25T22:09:17.784Z,86.35
2022-09-25T22:11:46.224Z,86.45
2022-09-25T22:14:16.320Z,86.30
2022-09-25T22:16:46.284Z,86.48
2022-09-25T22:19:19.022Z,86.51
2022-09-25T22:21:48.558Z,86.54
2022-09-25T22:24:16.587Z,86.35
2022-09-25T22:26:45.438Z,86.63
2022-09-25T22:29:13.891Z,86.75
2022-09-25T22:31:43.712Z,86.95
2022-09-25T22:34:29.596Z,86.83
2022-09-25T22:36:59.917Z,87.07
2022-09-25T22:39:29.302Z,87.25
2022-09-25T22:41:56.474Z,87.37
2022-09-25T22:44:23.889Z,87.51
2022-09-25T22:46:51.581Z,87.55
2022-09-25T22:49:18.551Z,87.70
2022-09-25T22:51:45.641Z,87.52
2022-09-25T22:54:14.092Z,87.36
2022-09-25T22:56:42.106Z,87.28
2022-09-25T22:59:12.489Z,87.71
2022-09-25T23:01:44.564Z,88.08
2022-09-25T23:04:14.665Z,88.09
2022-09-25T23:06:41.676Z,88.29
2022-09-25T23:09:13.728Z,88.35
2022-09-25T23:11:41.481Z,88.64
2022-09-25T23:14:16.510Z,88.85
2022-09-25T23:16:45.017Z,89.09
2022-09-25T23:19:12.545Z,89.22
2022-09-25T23:21:40.121Z,89.26
2022-09-25T23:24:10.590Z,89.12
2022-09-25T23:26:38.117Z,89.04
2022-09-25T23:29:05.251Z,88.95
2022-09-25T23:31:33.337Z,88.97
2022-09-25T23:34:01.636Z,89.21
2022-09-25T23:36:30.130Z,89.24
2022-09-25T23:38:59.902Z,89.23
2022-09-25T23:41:27.529Z,89.38
2022-09-25T23:43:55.463Z,89.37
2022-09-25T23:46:25.210Z,89.50
2022-09-25T23:48:52.837Z,89.60
2022-09-25T23:51:22.412Z,89.77
2022-09-25T23:53:49.835Z,89.79
2022-09-25T23:56:19.513Z,89.85
2022-09-25T23:58:47.680Z,89.83
